sensor_id;sensor_type;location;lat;lon;timestamp;P1;durP1;ratioP1;P2;durP2;ratioP2
5690;SDS011;2870;42.680;23.364;2023-06-14T00:00:42;14.37;;;8.00;;
5690;SDS011;2870;42.680;23.364;2023-06-14T00:03:09;10.40;;;7.17;;
5690;SDS011;2870;42.680;23.364;2023-06-14T00:05:36;14.83;;;7.93;;
5690;SDS011;2870;42.680;23.364;2023-06-14T00:08:08;11.23;;;7.40;;
5690;SDS011;2870;42.680;23.364;2023-06-14T00:10:35;13.80;;;7.50;;
5690;SDS011;2870;42.680;23.364;2023-06-14T00:13:04;23.13;;;7.70;;
5690;SDS011;2870;42.680;23.364;2023-06-14T00:15:32;17.10;;;8.00;;
5690;SDS011;2870;42.680;23.364;2023-06-14T00:18:00;16.77;;;7.80;;
5690;SDS011;2870;42.680;23.364;2023-06-14T00:20:27;9.17;;;7.13;;
5690;SDS011;2870;42.680;23.364;2023-06-14T00:22:55;10.00;;;6.83;;
5690;SDS011;2870;42.680;23.364;2023-06-14T00:25:23;10.60;;;7.87;;
5690;SDS011;2870;42.680;23.364;2023-06-14T00:27:50;11.30;;;7.60;;
5690;SDS011;2870;42.680;23.364;2023-06-14T00:30:18;14.63;;;7.90;;
5690;SDS011;2870;42.680;23.364;2023-06-14T00:32:45;14.43;;;7.67;;
5690;SDS011;2870;42.680;23.364;2023-06-14T00:35:13;15.33;;;7.90;;
5690;SDS011;2870;42.680;23.364;2023-06-14T00:37:40;12.90;;;8.60;;
5690;SDS011;2870;42.680;23.364;2023-06-14T00:40:07;14.97;;;7.30;;
5690;SDS011;2870;42.680;23.364;2023-06-14T00:42:34;11.00;;;8.10;;
5690;SDS011;2870;42.680;23.364;2023-06-14T00:45:01;12.40;;;8.00;;
5690;SDS011;2870;42.680;23.364;2023-06-14T00:47:30;13.50;;;8.13;;
5690;SDS011;2870;42.680;23.364;2023-06-14T00:49:56;10.83;;;7.57;;
5690;SDS011;2870;42.680;23.364;2023-06-14T00:52:25;13.17;;;7.47;;
5690;SDS011;2870;42.680;23.364;2023-06-14T00:54:52;11.10;;;7.87;;
5690;SDS011;2870;42.680;23.364;2023-06-14T00:57:19;12.73;;;8.33;;
5690;SDS011;2870;42.680;23.364;2023-06-14T00:59:49;16.93;;;8.77;;
5690;SDS011;2870;42.680;23.364;2023-06-14T01:02:16;10.83;;;7.53;;
5690;SDS011;2870;42.680;23.364;2023-06-14T01:04:46;10.40;;;7.33;;
5690;SDS011;2870;42.680;23.364;2023-06-14T01:07:15;14.73;;;8.60;;
5690;SDS011;2870;42.680;23.364;2023-06-14T01:09:54;12.30;;;8.60;;
5690;SDS011;2870;42.680;23.364;2023-06-14T01:12:35;13.70;;;8.00;;
5690;SDS011;2870;42.680;23.364;2023-06-14T01:15:05;12.73;;;7.87;;
5690;SDS011;2870;42.680;23.364;2023-06-14T01:17:33;13.80;;;8.90;;
5690;SDS011;2870;42.680;23.364;2023-06-14T01:20:02;11.30;;;7.97;;
5690;SDS011;2870;42.680;23.364;2023-06-14T01:22:34;14.97;;;8.40;;
5690;SDS011;2870;42.680;23.364;2023-06-14T01:25:04;11.97;;;7.67;;
5690;SDS011;2870;42.680;23.364;2023-06-14T01:27:31;11.47;;;7.80;;
5690;SDS011;2870;42.680;23.364;2023-06-14T01:29:58;18.90;;;7.87;;
5690;SDS011;2870;42.680;23.364;2023-06-14T01:32:27;11.93;;;8.07;;
5690;SDS011;2870;42.680;23.364;2023-06-14T01:34:55;12.17;;;8.00;;
5690;SDS011;2870;42.680;23.364;2023-06-14T01:37:22;14.47;;;7.80;;
5690;SDS011;2870;42.680;23.364;2023-06-14T01:39:50;12.60;;;8.17;;
5690;SDS011;2870;42.680;23.364;2023-06-14T01:42:18;11.73;;;8.50;;
5690;SDS011;2870;42.680;23.364;2023-06-14T01:44:46;12.40;;;8.10;;
5690;SDS011;2870;42.680;23.364;2023-06-14T01:47:14;13.23;;;8.80;;
5690;SDS011;2870;42.680;23.364;2023-06-14T01:49:41;12.90;;;8.33;;
5690;SDS011;2870;42.680;23.364;2023-06-14T01:52:07;14.53;;;9.47;;
5690;SDS011;2870;42.680;23.364;2023-06-14T01:54:35;13.37;;;8.33;;
5690;SDS011;2870;42.680;23.364;2023-06-14T01:57:07;12.13;;;7.47;;
5690;SDS011;2870;42.680;23.364;2023-06-14T01:59:35;14.23;;;8.63;;
5690;SDS011;2870;42.680;23.364;2023-06-14T02:02:02;12.27;;;9.17;;
5690;SDS011;2870;42.680;23.364;2023-06-14T02:04:30;10.70;;;8.03;;
5690;SDS011;2870;42.680;23.364;2023-06-14T02:06:56;13.77;;;8.40;;
5690;SDS011;2870;42.680;23.364;2023-06-14T02:09:23;11.00;;;7.90;;
5690;SDS011;2870;42.680;23.364;2023-06-14T02:11:50;12.03;;;8.70;;
5690;SDS011;2870;42.680;23.364;2023-06-14T02:14:17;11.27;;;8.57;;
5690;SDS011;2870;42.680;23.364;2023-06-14T02:16:45;10.40;;;7.93;;
5690;SDS011;2870;42.680;23.364;2023-06-14T02:19:14;10.83;;;7.80;;
5690;SDS011;2870;42.680;23.364;2023-06-14T02:21:41;15.30;;;9.17;;
5690;SDS011;2870;42.680;23.364;2023-06-14T02:24:07;12.13;;;7.80;;
5690;SDS011;2870;42.680;23.364;2023-06-14T02:26:35;12.27;;;8.33;;
5690;SDS011;2870;42.680;23.364;2023-06-14T02:29:03;11.70;;;8.37;;
5690;SDS011;2870;42.680;23.364;2023-06-14T02:31:30;11.77;;;8.40;;
5690;SDS011;2870;42.680;23.364;2023-06-14T02:33:58;13.50;;;8.20;;
5690;SDS011;2870;42.680;23.364;2023-06-14T02:36:25;15.27;;;8.60;;
5690;SDS011;2870;42.680;23.364;2023-06-14T02:38:52;13.53;;;8.03;;
5690;SDS011;2870;42.680;23.364;2023-06-14T02:41:19;13.90;;;9.10;;
5690;SDS011;2870;42.680;23.364;2023-06-14T02:43:46;13.03;;;8.80;;
5690;SDS011;2870;42.680;23.364;2023-06-14T02:46:13;11.20;;;8.53;;
5690;SDS011;2870;42.680;23.364;2023-06-14T02:48:40;19.30;;;10.70;;
5690;SDS011;2870;42.680;23.364;2023-06-14T02:51:08;12.27;;;8.80;;
5690;SDS011;2870;42.680;23.364;2023-06-14T02:53:35;17.43;;;9.50;;
5690;SDS011;2870;42.680;23.364;2023-06-14T02:56:02;15.13;;;9.60;;
5690;SDS011;2870;42.680;23.364;2023-06-14T02:58:30;12.03;;;8.93;;
5690;SDS011;2870;42.680;23.364;2023-06-14T03:00:58;15.50;;;8.53;;
5690;SDS011;2870;42.680;23.364;2023-06-14T03:03:28;21.83;;;9.17;;
5690;SDS011;2870;42.680;23.364;2023-06-14T03:05:55;14.43;;;9.60;;
5690;SDS011;2870;42.680;23.364;2023-06-14T03:08:23;12.07;;;8.93;;
5690;SDS011;2870;42.680;23.364;2023-06-14T03:10:54;13.83;;;8.77;;
5690;SDS011;2870;42.680;23.364;2023-06-14T03:13:21;11.67;;;8.67;;
5690;SDS011;2870;42.680;23.364;2023-06-14T03:15:48;12.33;;;8.53;;
5690;SDS011;2870;42.680;23.364;2023-06-14T03:18:16;13.93;;;8.97;;
5690;SDS011;2870;42.680;23.364;2023-06-14T03:20:44;18.57;;;11.37;;
5690;SDS011;2870;42.680;23.364;2023-06-14T03:23:11;15.43;;;9.47;;
5690;SDS011;2870;42.680;23.364;2023-06-14T03:25:40;24.07;;;13.40;;
5690;SDS011;2870;42.680;23.364;2023-06-14T03:28:07;26.33;;;11.47;;
5690;SDS011;2870;42.680;23.364;2023-06-14T03:30:35;16.53;;;11.50;;
5690;SDS011;2870;42.680;23.364;2023-06-14T03:33:01;14.73;;;10.47;;
5690;SDS011;2870;42.680;23.364;2023-06-14T03:35:29;14.67;;;10.07;;
5690;SDS011;2870;42.680;23.364;2023-06-14T03:37:56;16.00;;;10.97;;
5690;SDS011;2870;42.680;23.364;2023-06-14T03:40:23;18.73;;;11.17;;
5690;SDS011;2870;42.680;23.364;2023-06-14T03:42:53;19.03;;;9.93;;
5690;SDS011;2870;42.680;23.364;2023-06-14T03:45:20;15.43;;;8.57;;
5690;SDS011;2870;42.680;23.364;2023-06-14T03:47:47;15.10;;;9.80;;
5690;SDS011;2870;42.680;23.364;2023-06-14T03:50:14;18.53;;;10.87;;
5690;SDS011;2870;42.680;23.364;2023-06-14T03:52:41;18.53;;;11.87;;
5690;SDS011;2870;42.680;23.364;2023-06-14T03:55:09;21.13;;;12.13;;
5690;SDS011;2870;42.680;23.364;2023-06-14T03:57:38;15.90;;;10.77;;
5690;SDS011;2870;42.680;23.364;2023-06-14T04:00:07;17.10;;;9.70;;
5690;SDS011;2870;42.680;23.364;2023-06-14T04:02:34;14.67;;;10.07;;
5690;SDS011;2870;42.680;23.364;2023-06-14T04:05:02;19.63;;;10.23;;
5690;SDS011;2870;42.680;23.364;2023-06-14T04:07:30;13.80;;;9.73;;
5690;SDS011;2870;42.680;23.364;2023-06-14T04:09:57;18.53;;;10.70;;
5690;SDS011;2870;42.680;23.364;2023-06-14T04:12:24;17.40;;;9.17;;
5690;SDS011;2870;42.680;23.364;2023-06-14T04:14:51;18.87;;;9.60;;
5690;SDS011;2870;42.680;23.364;2023-06-14T04:17:19;14.50;;;9.70;;
5690;SDS011;2870;42.680;23.364;2023-06-14T04:19:46;17.00;;;9.73;;
5690;SDS011;2870;42.680;23.364;2023-06-14T04:22:13;13.67;;;10.10;;
5690;SDS011;2870;42.680;23.364;2023-06-14T04:24:39;17.20;;;9.87;;
5690;SDS011;2870;42.680;23.364;2023-06-14T04:27:07;14.90;;;9.10;;
5690;SDS011;2870;42.680;23.364;2023-06-14T04:29:34;13.07;;;9.27;;
5690;SDS011;2870;42.680;23.364;2023-06-14T04:32:01;15.77;;;8.47;;
5690;SDS011;2870;42.680;23.364;2023-06-14T04:34:29;15.57;;;10.00;;
5690;SDS011;2870;42.680;23.364;2023-06-14T04:36:57;12.80;;;9.70;;
5690;SDS011;2870;42.680;23.364;2023-06-14T04:39:26;21.33;;;10.10;;
5690;SDS011;2870;42.680;23.364;2023-06-14T04:41:53;16.30;;;11.27;;
5690;SDS011;2870;42.680;23.364;2023-06-14T04:44:22;14.60;;;10.90;;
5690;SDS011;2870;42.680;23.364;2023-06-14T04:46:55;19.47;;;10.27;;
5690;SDS011;2870;42.680;23.364;2023-06-14T04:49:23;15.50;;;10.20;;
5690;SDS011;2870;42.680;23.364;2023-06-14T04:51:52;18.13;;;10.30;;
5690;SDS011;2870;42.680;23.364;2023-06-14T04:54:22;16.73;;;10.43;;
5690;SDS011;2870;42.680;23.364;2023-06-14T04:56:50;18.63;;;11.13;;
5690;SDS011;2870;42.680;23.364;2023-06-14T04:59:16;16.03;;;11.20;;
5690;SDS011;2870;42.680;23.364;2023-06-14T05:01:44;21.20;;;10.77;;
5690;SDS011;2870;42.680;23.364;2023-06-14T05:04:13;15.87;;;12.03;;
5690;SDS011;2870;42.680;23.364;2023-06-14T05:06:40;18.53;;;10.43;;
5690;SDS011;2870;42.680;23.364;2023-06-14T05:09:11;14.90;;;10.33;;
5690;SDS011;2870;42.680;23.364;2023-06-14T05:11:38;19.00;;;11.50;;
5690;SDS011;2870;42.680;23.364;2023-06-14T05:14:05;19.80;;;11.57;;
5690;SDS011;2870;42.680;23.364;2023-06-14T05:16:32;17.10;;;11.40;;
5690;SDS011;2870;42.680;23.364;2023-06-14T05:18:59;18.37;;;12.57;;
5690;SDS011;2870;42.680;23.364;2023-06-14T05:21:26;16.53;;;11.20;;
5690;SDS011;2870;42.680;23.364;2023-06-14T05:23:53;17.93;;;12.20;;
5690;SDS011;2870;42.680;23.364;2023-06-14T05:26:22;19.07;;;11.70;;
5690;SDS011;2870;42.680;23.364;2023-06-14T05:28:53;20.03;;;13.10;;
5690;SDS011;2870;42.680;23.364;2023-06-14T05:31:21;18.63;;;13.10;;
5690;SDS011;2870;42.680;23.364;2023-06-14T05:33:49;18.10;;;13.10;;
5690;SDS011;2870;42.680;23.364;2023-06-14T05:36:15;26.43;;;12.93;;
5690;SDS011;2870;42.680;23.364;2023-06-14T05:38:42;28.73;;;13.50;;
5690;SDS011;2870;42.680;23.364;2023-06-14T05:41:09;31.43;;;13.00;;
5690;SDS011;2870;42.680;23.364;2023-06-14T05:43:37;20.10;;;12.27;;
5690;SDS011;2870;42.680;23.364;2023-06-14T05:46:04;20.80;;;14.00;;
5690;SDS011;2870;42.680;23.364;2023-06-14T05:48:31;24.00;;;13.53;;
5690;SDS011;2870;42.680;23.364;2023-06-14T05:50:58;18.80;;;12.97;;
5690;SDS011;2870;42.680;23.364;2023-06-14T05:53:25;18.13;;;13.20;;
5690;SDS011;2870;42.680;23.364;2023-06-14T05:55:52;20.77;;;13.43;;
5690;SDS011;2870;42.680;23.364;2023-06-14T05:58:20;23.00;;;14.70;;
5690;SDS011;2870;42.680;23.364;2023-06-14T06:00:48;23.50;;;13.60;;
5690;SDS011;2870;42.680;23.364;2023-06-14T06:03:15;19.57;;;14.00;;
5690;SDS011;2870;42.680;23.364;2023-06-14T06:05:42;22.23;;;13.60;;
5690;SDS011;2870;42.680;23.364;2023-06-14T06:08:08;27.13;;;13.90;;
5690;SDS011;2870;42.680;23.364;2023-06-14T06:10:35;18.37;;;13.57;;
5690;SDS011;2870;42.680;23.364;2023-06-14T06:13:02;22.30;;;12.87;;
5690;SDS011;2870;42.680;23.364;2023-06-14T06:15:29;26.80;;;13.73;;
5690;SDS011;2870;42.680;23.364;2023-06-14T06:17:57;19.33;;;13.73;;
5690;SDS011;2870;42.680;23.364;2023-06-14T06:20:24;22.20;;;14.20;;
5690;SDS011;2870;42.680;23.364;2023-06-14T06:22:53;29.37;;;13.63;;
5690;SDS011;2870;42.680;23.364;2023-06-14T06:25:20;18.83;;;13.80;;
5690;SDS011;2870;42.680;23.364;2023-06-14T06:27:47;19.53;;;13.27;;
5690;SDS011;2870;42.680;23.364;2023-06-14T06:30:14;25.77;;;14.53;;
5690;SDS011;2870;42.680;23.364;2023-06-14T06:32:40;23.80;;;13.43;;
5690;SDS011;2870;42.680;23.364;2023-06-14T06:35:09;23.73;;;14.60;;
5690;SDS011;2870;42.680;23.364;2023-06-14T06:37:37;21.33;;;13.60;;
5690;SDS011;2870;42.680;23.364;2023-06-14T06:40:05;25.07;;;15.63;;
5690;SDS011;2870;42.680;23.364;2023-06-14T06:42:33;34.20;;;15.90;;
5690;SDS011;2870;42.680;23.364;2023-06-14T06:45:00;25.90;;;14.97;;
5690;SDS011;2870;42.680;23.364;2023-06-14T06:47:27;28.50;;;14.67;;
5690;SDS011;2870;42.680;23.364;2023-06-14T06:49:54;23.53;;;14.50;;
5690;SDS011;2870;42.680;23.364;2023-06-14T06:52:22;23.50;;;15.17;;
5690;SDS011;2870;42.680;23.364;2023-06-14T06:54:49;22.07;;;13.70;;
5690;SDS011;2870;42.680;23.364;2023-06-14T06:57:19;26.90;;;15.20;;
5690;SDS011;2870;42.680;23.364;2023-06-14T06:59:47;32.63;;;15.60;;
5690;SDS011;2870;42.680;23.364;2023-06-14T07:02:14;22.60;;;14.03;;
5690;SDS011;2870;42.680;23.364;2023-06-14T07:04:41;23.47;;;14.80;;
5690;SDS011;2870;42.680;23.364;2023-06-14T07:07:08;21.20;;;14.07;;
5690;SDS011;2870;42.680;23.364;2023-06-14T07:09:36;23.00;;;15.27;;
5690;SDS011;2870;42.680;23.364;2023-06-14T07:12:04;23.40;;;14.40;;
5690;SDS011;2870;42.680;23.364;2023-06-14T07:14:31;25.33;;;14.23;;
5690;SDS011;2870;42.680;23.364;2023-06-14T07:16:58;21.70;;;14.23;;
5690;SDS011;2870;42.680;23.364;2023-06-14T07:19:25;23.70;;;15.17;;
5690;SDS011;2870;42.680;23.364;2023-06-14T07:21:52;21.90;;;15.03;;
5690;SDS011;2870;42.680;23.364;2023-06-14T07:24:19;26.73;;;16.13;;
5690;SDS011;2870;42.680;23.364;2023-06-14T07:26:47;23.07;;;15.77;;
5690;SDS011;2870;42.680;23.364;2023-06-14T07:29:14;25.57;;;16.00;;
5690;SDS011;2870;42.680;23.364;2023-06-14T07:31:41;22.23;;;15.40;;
5690;SDS011;2870;42.680;23.364;2023-06-14T07:34:09;24.83;;;16.03;;
5690;SDS011;2870;42.680;23.364;2023-06-14T07:36:35;25.53;;;16.40;;
5690;SDS011;2870;42.680;23.364;2023-06-14T07:39:03;26.77;;;18.20;;
5690;SDS011;2870;42.680;23.364;2023-06-14T07:41:31;23.80;;;15.63;;
5690;SDS011;2870;42.680;23.364;2023-06-14T07:43:59;27.20;;;15.27;;
5690;SDS011;2870;42.680;23.364;2023-06-14T07:46:26;24.00;;;15.17;;
5690;SDS011;2870;42.680;23.364;2023-06-14T07:48:53;20.63;;;15.97;;
5690;SDS011;2870;42.680;23.364;2023-06-14T07:51:19;24.10;;;15.67;;
5690;SDS011;2870;42.680;23.364;2023-06-14T07:53:47;25.23;;;15.77;;
5690;SDS011;2870;42.680;23.364;2023-06-14T07:56:14;22.03;;;15.30;;
5690;SDS011;2870;42.680;23.364;2023-06-14T07:58:41;29.53;;;15.87;;
5690;SDS011;2870;42.680;23.364;2023-06-14T08:01:09;22.87;;;15.80;;
5690;SDS011;2870;42.680;23.364;2023-06-14T08:03:36;25.83;;;15.90;;
5690;SDS011;2870;42.680;23.364;2023-06-14T08:06:03;21.33;;;14.50;;
5690;SDS011;2870;42.680;23.364;2023-06-14T08:08:31;22.70;;;14.50;;
5690;SDS011;2870;42.680;23.364;2023-06-14T08:10:57;20.40;;;13.73;;
5690;SDS011;2870;42.680;23.364;2023-06-14T08:13:24;19.83;;;13.80;;
5690;SDS011;2870;42.680;23.364;2023-06-14T08:15:51;27.03;;;14.40;;
5690;SDS011;2870;42.680;23.364;2023-06-14T08:18:20;23.77;;;12.43;;
5690;SDS011;2870;42.680;23.364;2023-06-14T08:20:47;18.07;;;14.13;;
5690;SDS011;2870;42.680;23.364;2023-06-14T08:23:15;18.27;;;13.23;;
5690;SDS011;2870;42.680;23.364;2023-06-14T08:25:44;23.13;;;13.50;;
5690;SDS011;2870;42.680;23.364;2023-06-14T08:28:11;16.60;;;12.40;;
5690;SDS011;2870;42.680;23.364;2023-06-14T08:30:37;20.63;;;13.60;;
5690;SDS011;2870;42.680;23.364;2023-06-14T08:33:04;22.90;;;13.00;;
5690;SDS011;2870;42.680;23.364;2023-06-14T08:35:32;20.53;;;12.13;;
5690;SDS011;2870;42.680;23.364;2023-06-14T08:38:02;19.47;;;12.07;;
5690;SDS011;2870;42.680;23.364;2023-06-14T08:40:30;19.43;;;13.37;;
5690;SDS011;2870;42.680;23.364;2023-06-14T08:42:57;20.57;;;12.53;;
5690;SDS011;2870;42.680;23.364;2023-06-14T08:45:24;24.30;;;12.37;;
5690;SDS011;2870;42.680;23.364;2023-06-14T08:47:51;18.87;;;11.80;;
5690;SDS011;2870;42.680;23.364;2023-06-14T08:50:22;17.57;;;12.23;;
5690;SDS011;2870;42.680;23.364;2023-06-14T08:52:53;21.27;;;12.60;;
5690;SDS011;2870;42.680;23.364;2023-06-14T08:55:22;14.93;;;10.97;;
5690;SDS011;2870;42.680;23.364;2023-06-14T08:57:53;15.70;;;11.53;;
5690;SDS011;2870;42.680;23.364;2023-06-14T09:00:21;21.10;;;11.30;;
5690;SDS011;2870;42.680;23.364;2023-06-14T09:02:49;16.63;;;11.67;;
5690;SDS011;2870;42.680;23.364;2023-06-14T09:05:21;19.60;;;11.43;;
5690;SDS011;2870;42.680;23.364;2023-06-14T09:07:49;18.37;;;13.33;;
5690;SDS011;2870;42.680;23.364;2023-06-14T09:10:17;21.80;;;12.57;;
5690;SDS011;2870;42.680;23.364;2023-06-14T09:12:45;18.30;;;11.53;;
5690;SDS011;2870;42.680;23.364;2023-06-14T09:15:12;18.40;;;12.50;;
5690;SDS011;2870;42.680;23.364;2023-06-14T09:17:39;19.80;;;12.27;;
5690;SDS011;2870;42.680;23.364;2023-06-14T09:20:07;14.70;;;11.40;;
5690;SDS011;2870;42.680;23.364;2023-06-14T09:22:36;17.23;;;11.13;;
5690;SDS011;2870;42.680;23.364;2023-06-14T09:25:03;18.37;;;12.67;;
5690;SDS011;2870;42.680;23.364;2023-06-14T09:27:32;23.40;;;11.63;;
5690;SDS011;2870;42.680;23.364;2023-06-14T09:30:00;16.77;;;11.00;;
5690;SDS011;2870;42.680;23.364;2023-06-14T09:32:28;14.17;;;10.40;;
5690;SDS011;2870;42.680;23.364;2023-06-14T09:34:55;16.30;;;10.67;;
5690;SDS011;2870;42.680;23.364;2023-06-14T09:37:27;17.70;;;11.53;;
5690;SDS011;2870;42.680;23.364;2023-06-14T09:39:55;16.73;;;11.80;;
5690;SDS011;2870;42.680;23.364;2023-06-14T09:42:21;20.13;;;12.67;;
5690;SDS011;2870;42.680;23.364;2023-06-14T09:44:52;14.10;;;11.20;;
5690;SDS011;2870;42.680;23.364;2023-06-14T09:47:20;17.80;;;11.67;;
5690;SDS011;2870;42.680;23.364;2023-06-14T09:49:47;15.30;;;10.30;;
5690;SDS011;2870;42.680;23.364;2023-06-14T09:52:14;17.93;;;9.87;;
5690;SDS011;2870;42.680;23.364;2023-06-14T09:54:42;16.33;;;11.50;;
5690;SDS011;2870;42.680;23.364;2023-06-14T09:57:11;15.30;;;11.60;;
5690;SDS011;2870;42.680;23.364;2023-06-14T09:59:40;14.43;;;10.63;;
5690;SDS011;2870;42.680;23.364;2023-06-14T10:02:11;14.20;;;10.70;;
5690;SDS011;2870;42.680;23.364;2023-06-14T10:04:46;18.00;;;11.37;;
5690;SDS011;2870;42.680;23.364;2023-06-14T10:07:18;15.37;;;10.50;;
5690;SDS011;2870;42.680;23.364;2023-06-14T10:09:46;16.07;;;10.90;;
5690;SDS011;2870;42.680;23.364;2023-06-14T10:12:15;12.63;;;8.67;;
5690;SDS011;2870;42.680;23.364;2023-06-14T10:14:46;13.20;;;9.63;;
5690;SDS011;2870;42.680;23.364;2023-06-14T10:17:20;16.27;;;11.70;;
5690;SDS011;2870;42.680;23.364;2023-06-14T10:20:02;16.10;;;10.20;;
5690;SDS011;2870;42.680;23.364;2023-06-14T10:22:38;14.07;;;10.27;;
5690;SDS011;2870;42.680;23.364;2023-06-14T10:25:12;12.80;;;9.33;;
5690;SDS011;2870;42.680;23.364;2023-06-14T10:27:51;12.77;;;9.10;;
5690;SDS011;2870;42.680;23.364;2023-06-14T10:30:18;14.30;;;10.30;;
5690;SDS011;2870;42.680;23.364;2023-06-14T10:33:05;14.90;;;10.33;;
5690;SDS011;2870;42.680;23.364;2023-06-14T10:35:34;14.90;;;10.20;;
5690;SDS011;2870;42.680;23.364;2023-06-14T10:38:08;13.20;;;9.70;;
5690;SDS011;2870;42.680;23.364;2023-06-14T10:40:36;14.53;;;9.93;;
5690;SDS011;2870;42.680;23.364;2023-06-14T10:48:45;20.13;;;12.07;;
5690;SDS011;2870;42.680;23.364;2023-06-14T10:51:15;15.50;;;9.87;;
5690;SDS011;2870;42.680;23.364;2023-06-14T10:53:45;20.07;;;10.07;;
5690;SDS011;2870;42.680;23.364;2023-06-14T10:56:23;16.73;;;10.87;;
5690;SDS011;2870;42.680;23.364;2023-06-14T10:58:53;14.30;;;10.03;;
5690;SDS011;2870;42.680;23.364;2023-06-14T11:01:23;16.17;;;11.03;;
5690;SDS011;2870;42.680;23.364;2023-06-14T11:04:05;18.87;;;11.20;;
5690;SDS011;2870;42.680;23.364;2023-06-14T11:06:36;14.60;;;10.80;;
5690;SDS011;2870;42.680;23.364;2023-06-14T11:12:12;13.40;;;9.93;;
5690;SDS011;2870;42.680;23.364;2023-06-14T11:14:39;13.10;;;9.37;;
5690;SDS011;2870;42.680;23.364;2023-06-14T11:17:06;15.27;;;9.37;;
5690;SDS011;2870;42.680;23.364;2023-06-14T11:19:34;14.30;;;9.60;;
5690;SDS011;2870;42.680;23.364;2023-06-14T11:22:01;16.87;;;9.70;;
5690;SDS011;2870;42.680;23.364;2023-06-14T11:24:28;15.87;;;9.40;;
5690;SDS011;2870;42.680;23.364;2023-06-14T11:26:55;13.83;;;8.97;;
5690;SDS011;2870;42.680;23.364;2023-06-14T11:29:22;13.33;;;9.37;;
5690;SDS011;2870;42.680;23.364;2023-06-14T11:31:50;14.90;;;9.70;;
5690;SDS011;2870;42.680;23.364;2023-06-14T11:34:17;12.20;;;8.60;;
5690;SDS011;2870;42.680;23.364;2023-06-14T11:36:45;14.87;;;10.07;;
5690;SDS011;2870;42.680;23.364;2023-06-14T11:39:12;12.90;;;9.27;;
5690;SDS011;2870;42.680;23.364;2023-06-14T11:41:40;12.40;;;9.33;;
5690;SDS011;2870;42.680;23.364;2023-06-14T11:44:08;11.57;;;8.63;;
5690;SDS011;2870;42.680;23.364;2023-06-14T11:46:35;15.53;;;9.47;;
5690;SDS011;2870;42.680;23.364;2023-06-14T11:49:02;15.10;;;9.33;;
5690;SDS011;2870;42.680;23.364;2023-06-14T11:51:32;13.23;;;9.23;;
5690;SDS011;2870;42.680;23.364;2023-06-14T11:54:01;16.87;;;9.20;;
5690;SDS011;2870;42.680;23.364;2023-06-14T11:56:28;11.40;;;8.50;;
5690;SDS011;2870;42.680;23.364;2023-06-14T11:58:56;12.60;;;8.57;;
5690;SDS011;2870;42.680;23.364;2023-06-14T12:01:24;11.73;;;8.33;;
5690;SDS011;2870;42.680;23.364;2023-06-14T12:03:52;12.50;;;8.37;;
5690;SDS011;2870;42.680;23.364;2023-06-14T12:06:25;14.33;;;8.10;;
5690;SDS011;2870;42.680;23.364;2023-06-14T12:08:57;11.00;;;8.20;;
5690;SDS011;2870;42.680;23.364;2023-06-14T12:11:25;12.97;;;8.67;;
5690;SDS011;2870;42.680;23.364;2023-06-14T12:13:59;11.73;;;7.50;;
5690;SDS011;2870;42.680;23.364;2023-06-14T12:16:30;11.07;;;7.10;;
5690;SDS011;2870;42.680;23.364;2023-06-14T12:18:59;11.77;;;8.17;;
5690;SDS011;2870;42.680;23.364;2023-06-14T12:21:28;11.67;;;7.17;;
5690;SDS011;2870;42.680;23.364;2023-06-14T12:23:55;10.20;;;7.33;;
5690;SDS011;2870;42.680;23.364;2023-06-14T12:26:22;11.63;;;7.00;;
5690;SDS011;2870;42.680;23.364;2023-06-14T12:28:53;10.87;;;7.47;;
5690;SDS011;2870;42.680;23.364;2023-06-14T12:31:20;13.63;;;8.70;;
5690;SDS011;2870;42.680;23.364;2023-06-14T12:33:47;10.10;;;7.20;;
5690;SDS011;2870;42.680;23.364;2023-06-14T12:36:14;11.30;;;7.23;;
5690;SDS011;2870;42.680;23.364;2023-06-14T12:38:41;10.90;;;6.90;;
5690;SDS011;2870;42.680;23.364;2023-06-14T12:41:08;11.27;;;7.80;;
5690;SDS011;2870;42.680;23.364;2023-06-14T12:43:36;9.50;;;7.40;;
5690;SDS011;2870;42.680;23.364;2023-06-14T12:46:03;15.43;;;7.70;;
5690;SDS011;2870;42.680;23.364;2023-06-14T12:48:30;9.63;;;6.80;;
5690;SDS011;2870;42.680;23.364;2023-06-14T12:50:57;10.70;;;6.93;;
5690;SDS011;2870;42.680;23.364;2023-06-14T12:53:24;8.93;;;6.70;;
5690;SDS011;2870;42.680;23.364;2023-06-14T12:55:51;11.30;;;7.70;;
5690;SDS011;2870;42.680;23.364;2023-06-14T12:58:18;10.60;;;6.83;;
5690;SDS011;2870;42.680;23.364;2023-06-14T13:00:47;9.13;;;6.70;;
5690;SDS011;2870;42.680;23.364;2023-06-14T13:03:14;9.87;;;6.90;;
5690;SDS011;2870;42.680;23.364;2023-06-14T13:05:41;10.27;;;7.30;;
5690;SDS011;2870;42.680;23.364;2023-06-14T13:08:08;9.27;;;6.67;;
5690;SDS011;2870;42.680;23.364;2023-06-14T13:10:35;12.43;;;6.40;;
5690;SDS011;2870;42.680;23.364;2023-06-14T13:13:01;13.77;;;7.07;;
5690;SDS011;2870;42.680;23.364;2023-06-14T13:15:29;10.47;;;7.20;;
5690;SDS011;2870;42.680;23.364;2023-06-14T13:17:57;22.33;;;8.00;;
5690;SDS011;2870;42.680;23.364;2023-06-14T13:20:24;11.07;;;7.80;;
5690;SDS011;2870;42.680;23.364;2023-06-14T13:22:51;12.70;;;8.70;;
5690;SDS011;2870;42.680;23.364;2023-06-14T13:25:18;12.20;;;8.17;;
5690;SDS011;2870;42.680;23.364;2023-06-14T13:27:45;11.03;;;7.93;;
5690;SDS011;2870;42.680;23.364;2023-06-14T13:30:12;15.73;;;8.67;;
5690;SDS011;2870;42.680;23.364;2023-06-14T13:32:39;14.70;;;8.70;;
5690;SDS011;2870;42.680;23.364;2023-06-14T13:35:07;14.50;;;9.13;;
5690;SDS011;2870;42.680;23.364;2023-06-14T13:37:34;14.27;;;8.70;;
5690;SDS011;2870;42.680;23.364;2023-06-14T13:40:01;13.20;;;8.87;;
5690;SDS011;2870;42.680;23.364;2023-06-14T13:42:28;12.23;;;8.87;;
5690;SDS011;2870;42.680;23.364;2023-06-14T13:44:57;14.33;;;9.43;;
5690;SDS011;2870;42.680;23.364;2023-06-14T13:47:24;13.03;;;9.90;;
5690;SDS011;2870;42.680;23.364;2023-06-14T13:49:51;13.70;;;8.70;;
5690;SDS011;2870;42.680;23.364;2023-06-14T13:52:19;12.60;;;9.00;;
5690;SDS011;2870;42.680;23.364;2023-06-14T13:54:46;11.90;;;9.10;;
5690;SDS011;2870;42.680;23.364;2023-06-14T13:57:13;15.27;;;9.27;;
5690;SDS011;2870;42.680;23.364;2023-06-14T13:59:40;14.40;;;9.23;;
5690;SDS011;2870;42.680;23.364;2023-06-14T14:02:09;14.27;;;9.40;;
5690;SDS011;2870;42.680;23.364;2023-06-14T14:04:36;13.60;;;9.67;;
5690;SDS011;2870;42.680;23.364;2023-06-14T14:07:03;16.10;;;9.97;;
5690;SDS011;2870;42.680;23.364;2023-06-14T14:09:32;14.27;;;9.27;;
5690;SDS011;2870;42.680;23.364;2023-06-14T14:11:59;13.33;;;9.83;;
5690;SDS011;2870;42.680;23.364;2023-06-14T14:14:26;12.97;;;8.90;;
5690;SDS011;2870;42.680;23.364;2023-06-14T14:16:53;12.70;;;9.60;;
5690;SDS011;2870;42.680;23.364;2023-06-14T14:19:20;13.47;;;8.30;;
5690;SDS011;2870;42.680;23.364;2023-06-14T14:21:48;21.23;;;9.47;;
5690;SDS011;2870;42.680;23.364;2023-06-14T14:24:14;13.13;;;8.33;;
5690;SDS011;2870;42.680;23.364;2023-06-14T14:26:43;14.60;;;8.33;;
5690;SDS011;2870;42.680;23.364;2023-06-14T14:29:12;11.70;;;9.00;;
5690;SDS011;2870;42.680;23.364;2023-06-14T14:31:40;14.40;;;8.07;;
5690;SDS011;2870;42.680;23.364;2023-06-14T14:34:07;12.13;;;8.50;;
5690;SDS011;2870;42.680;23.364;2023-06-14T14:36:34;12.70;;;8.13;;
5690;SDS011;2870;42.680;23.364;2023-06-14T14:39:02;15.07;;;8.70;;
5690;SDS011;2870;42.680;23.364;2023-06-14T14:41:30;13.23;;;9.23;;
5690;SDS011;2870;42.680;23.364;2023-06-14T14:43:58;12.57;;;8.43;;
5690;SDS011;2870;42.680;23.364;2023-06-14T14:46:25;12.00;;;8.57;;
5690;SDS011;2870;42.680;23.364;2023-06-14T14:48:53;16.13;;;8.00;;
5690;SDS011;2870;42.680;23.364;2023-06-14T14:51:19;11.60;;;7.70;;
5690;SDS011;2870;42.680;23.364;2023-06-14T14:53:46;13.10;;;8.63;;